Craigavon, United Kingdom
Current Conditions -  °F | °C
As of 10:20 AM on Friday 26 Dec 2014 (Local Time) from EGAA Reporting Station
Clear Clear  
Wind Chill: 34°   Ceiling: Unl
Heat Index: 37°   Visibility: 6mi
Dew Point: 36°   Wind: 5mph
Humidity: 93%   Direction: 160°SSE
Pressure: 30.18"   Gusts: NA
Location:  54.45°N, 6.39°W
Report Text: EGAA 261020Z 16004KT CAVOK 03/02 Q1022
Loading
Personal Weather Stations






























Interactive Weather Map New forecast layout! Learn more

10-Day Weather Forecast

Advertisements
Track Severe Weather on mobile